createdAt,value
2019-02-23T00:01:17.098Z,14.38
2019-02-23T00:03:47.598Z,14.25
2019-02-23T00:06:28.924Z,13.65
2019-02-23T00:08:50.298Z,13.85
2019-02-23T00:11:23.479Z,14.80
2019-02-23T00:13:54.090Z,14.78
2019-02-23T00:16:25.930Z,14.43
2019-02-23T00:18:58.249Z,14.50
2019-02-23T00:21:28.658Z,14.53
2019-02-23T00:23:58.828Z,15.20
2019-02-23T00:26:29.154Z,15.45
2019-02-23T00:29:02.365Z,13.50
2019-02-23T00:31:32.677Z,15.58
2019-02-23T00:34:03.305Z,16.07
2019-02-23T00:36:33.557Z,14.75
2019-02-23T00:39:05.023Z,15.43
2019-02-23T00:41:35.435Z,16.67
2019-02-23T00:44:05.775Z,15.80
2019-02-23T00:46:36.593Z,16.10
2019-02-23T00:49:07.260Z,15.63
2019-02-23T00:51:37.916Z,15.80
2019-02-23T00:54:08.343Z,14.90
2019-02-23T00:56:38.833Z,16.10
2019-02-23T00:59:09.276Z,16.20
2019-02-23T01:01:39.668Z,17.52
2019-02-23T01:04:10.519Z,17.00
2019-02-23T01:06:40.986Z,17.07
2019-02-23T01:09:11.688Z,17.35
2019-02-23T01:11:42.135Z,19.20
2019-02-23T01:14:13.123Z,17.17
2019-02-23T01:16:43.837Z,16.20
2019-02-23T01:19:14.690Z,17.77
2019-02-23T01:21:45.130Z,18.05
2019-02-23T01:24:15.569Z,17.30
2019-02-23T01:26:46.218Z,17.23
2019-02-23T01:29:16.525Z,17.70
2019-02-23T01:31:48.955Z,18.48
2019-02-23T01:34:20.731Z,18.00
2019-02-23T01:36:51.093Z,18.50
2019-02-23T01:39:22.811Z,17.90
2019-02-23T01:41:56.794Z,16.10
2019-02-23T01:44:27.723Z,17.60
2019-02-23T01:46:58.092Z,17.35
2019-02-23T01:49:28.562Z,16.80
2019-02-23T01:51:59.472Z,17.10
2019-02-23T01:54:30.110Z,16.60
2019-02-23T01:57:01.149Z,17.75
2019-02-23T01:59:31.431Z,16.85
2019-02-23T02:02:01.759Z,16.80
2019-02-23T02:04:34.009Z,17.12
2019-02-23T02:07:04.514Z,17.55
2019-02-23T02:09:35.020Z,18.32
2019-02-23T02:12:06.938Z,17.07
2019-02-23T02:14:37.950Z,17.05
2019-02-23T02:17:08.295Z,18.37
2019-02-23T02:19:38.674Z,18.37
2019-02-23T02:22:10.011Z,17.85
2019-02-23T02:24:40.766Z,18.42
2019-02-23T02:27:11.392Z,17.57
2019-02-23T02:29:41.859Z,17.45
2019-02-23T02:32:12.784Z,17.40
2019-02-23T02:34:43.232Z,18.05
2019-02-23T02:37:13.646Z,17.15
2019-02-23T02:39:44.178Z,17.40
2019-02-23T02:42:15.700Z,17.37
2019-02-23T02:44:46.471Z,18.45
2019-02-23T02:47:16.712Z,17.82
2019-02-23T02:49:47.329Z,16.97
2019-02-23T02:52:17.639Z,17.20
2019-02-23T02:54:48.000Z,18.98
2019-02-23T02:57:18.390Z,17.75
2019-02-23T02:59:49.096Z,17.85
2019-02-23T03:02:20.337Z,17.48
2019-02-23T03:04:51.482Z,19.25
2019-02-23T03:07:22.220Z,16.65
2019-02-23T03:09:52.802Z,18.60
2019-02-23T03:12:23.619Z,17.75
2019-02-23T03:14:54.204Z,18.30
2019-02-23T03:17:24.441Z,17.73
2019-02-23T03:19:55.038Z,18.95
2019-02-23T03:22:25.231Z,18.60
2019-02-23T03:24:55.702Z,17.95
2019-02-23T03:27:25.961Z,17.15
2019-02-23T03:29:56.267Z,19.42
2019-02-23T03:32:26.466Z,17.25
2019-02-23T03:34:56.788Z,16.97
2019-02-23T03:37:27.291Z,19.17
2019-02-23T03:39:58.163Z,17.70
2019-02-23T03:42:28.816Z,18.45
2019-02-23T03:44:59.145Z,18.65
2019-02-23T03:47:29.983Z,18.50
2019-02-23T03:50:00.336Z,19.90
2019-02-23T03:52:30.659Z,19.65
2019-02-23T03:55:01.405Z,18.35
2019-02-23T03:57:31.694Z,19.02
2019-02-23T04:00:02.264Z,19.50
2019-02-23T04:02:32.620Z,17.82
2019-02-23T04:05:03.170Z,18.37
2019-02-23T04:07:33.485Z,18.52
2019-02-23T04:10:06.425Z,18.98
2019-02-23T04:12:36.690Z,17.87
2019-02-23T04:15:07.304Z,19.27
2019-02-23T04:17:38.451Z,17.55
2019-02-23T04:20:08.796Z,18.60
2019-02-23T04:22:39.386Z,19.60
2019-02-23T04:25:09.719Z,19.15
2019-02-23T04:27:40.064Z,17.95
2019-02-23T04:30:10.500Z,20.32
2019-02-23T04:32:40.789Z,18.85
2019-02-23T04:35:11.368Z,19.00
2019-02-23T04:37:41.705Z,19.25
2019-02-23T04:40:12.589Z,19.40
2019-02-23T04:42:42.871Z,19.25
2019-02-23T04:45:13.318Z,19.80
2019-02-23T04:47:43.633Z,18.65
2019-02-23T04:50:14.039Z,19.30
2019-02-23T04:52:44.622Z,19.40
2019-02-23T04:55:15.014Z,18.40
2019-02-23T04:57:45.212Z,18.12
2019-02-23T05:00:15.839Z,18.67
2019-02-23T05:02:46.089Z,19.70
2019-02-23T05:05:17.039Z,18.15
2019-02-23T05:07:47.370Z,18.92
2019-02-23T05:10:19.824Z,19.37
2019-02-23T05:12:50.351Z,18.95
2019-02-23T05:15:25.244Z,19.07
2019-02-23T05:17:55.844Z,18.25
2019-02-23T05:20:26.394Z,19.02
2019-02-23T05:22:56.977Z,20.60
2019-02-23T05:25:27.346Z,18.65
2019-02-23T05:27:57.621Z,18.30
2019-02-23T05:30:28.033Z,19.77
2019-02-23T05:32:58.755Z,18.15
2019-02-23T05:35:29.388Z,18.87
2019-02-23T05:38:00.127Z,19.10
2019-02-23T05:40:30.844Z,20.37
2019-02-23T05:43:01.644Z,19.90
2019-02-23T05:45:32.473Z,19.45
2019-02-23T05:48:02.806Z,18.85
2019-02-23T05:50:33.040Z,20.12
2019-02-23T05:53:03.286Z,19.57
2019-02-23T05:55:33.621Z,19.17
2019-02-23T05:58:03.993Z,19.52
2019-02-23T06:00:34.427Z,19.15
2019-02-23T06:03:02.425Z,20.32
2019-02-23T06:05:32.940Z,23.05
2019-02-23T06:08:03.525Z,19.30
2019-02-23T06:10:34.159Z,19.23
2019-02-23T06:13:04.876Z,19.30
2019-02-23T06:15:35.201Z,20.20
2019-02-23T06:18:05.562Z,20.15
2019-02-23T06:20:36.239Z,19.07
2019-02-23T06:23:06.746Z,20.45
2019-02-23T06:25:37.075Z,20.90
2019-02-23T06:28:07.577Z,19.95
2019-02-23T06:30:37.880Z,22.22
2019-02-23T06:33:08.068Z,20.20
2019-02-23T06:35:38.592Z,19.85
2019-02-23T06:38:09.282Z,19.77
2019-02-23T06:40:39.637Z,19.32
2019-02-23T06:43:09.943Z,19.60
2019-02-23T06:45:40.293Z,19.90
2019-02-23T06:48:10.660Z,18.92
2019-02-23T06:50:40.904Z,20.08
2019-02-23T06:53:12.078Z,19.95
2019-02-23T06:55:42.689Z,20.52
2019-02-23T06:58:13.691Z,20.48
2019-02-23T07:00:44.212Z,20.27
2019-02-23T07:03:14.837Z,20.25
2019-02-23T07:05:45.653Z,20.90
2019-02-23T07:08:16.368Z,19.75
2019-02-23T07:10:46.692Z,21.62
2019-02-23T07:13:17.007Z,18.25
2019-02-23T07:15:47.494Z,19.55
2019-02-23T07:18:17.776Z,20.37
2019-02-23T07:20:48.368Z,20.55
2019-02-23T07:23:19.159Z,21.10
2019-02-23T07:25:50.301Z,19.62
2019-02-23T07:28:21.177Z,20.90
2019-02-23T07:30:51.648Z,22.02
2019-02-23T07:33:32.431Z,19.95
2019-02-23T07:35:54.083Z,21.65
2019-02-23T07:38:24.625Z,20.25
2019-02-23T07:40:55.042Z,20.27
2019-02-23T07:43:25.440Z,19.67
2019-02-23T07:45:55.591Z,22.37
2019-02-23T07:48:25.963Z,21.02
2019-02-23T07:50:56.796Z,21.05
2019-02-23T07:53:27.225Z,19.65
2019-02-23T07:56:00.806Z,19.60
2019-02-23T07:58:32.150Z,20.20
2019-02-23T08:01:03.126Z,20.37
2019-02-23T08:03:34.067Z,20.45
2019-02-23T08:06:06.140Z,19.87
2019-02-23T08:08:36.620Z,20.95
2019-02-23T08:11:09.168Z,20.55
2019-02-23T08:13:40.710Z,18.98
2019-02-23T08:16:16.136Z,21.05
2019-02-23T08:18:46.488Z,21.75
2019-02-23T08:21:16.957Z,20.10
2019-02-23T08:23:47.251Z,20.72
2019-02-23T08:26:17.667Z,19.62
2019-02-23T08:28:48.027Z,20.62
2019-02-23T08:31:18.445Z,21.17
2019-02-23T08:33:50.181Z,20.40
2019-02-23T08:36:20.795Z,20.72
2019-02-23T08:38:52.502Z,20.95
2019-02-23T08:41:22.939Z,21.05
2019-02-23T08:43:56.393Z,21.37
2019-02-23T08:46:27.553Z,20.55
2019-02-23T08:48:59.432Z,19.17
2019-02-23T08:51:30.694Z,20.27
2019-02-23T08:54:01.413Z,19.15
2019-02-23T08:56:32.013Z,21.10
2019-02-23T08:59:02.562Z,19.48
2019-02-23T09:01:33.045Z,21.33
2019-02-23T09:04:07.239Z,20.45
2019-02-23T09:06:37.575Z,20.35
2019-02-23T09:09:08.432Z,18.73
2019-02-23T09:11:38.810Z,20.20
2019-02-23T09:14:09.123Z,19.27
2019-02-23T09:16:40.123Z,19.77
2019-02-23T09:19:10.893Z,20.85
2019-02-23T09:21:42.067Z,18.02
2019-02-23T09:24:12.703Z,19.15
2019-02-23T09:26:43.540Z,19.07
2019-02-23T09:29:17.276Z,19.85
2019-02-23T09:31:48.918Z,18.92
2019-02-23T09:34:20.244Z,19.27
2019-02-23T09:36:50.883Z,19.07
2019-02-23T09:39:21.643Z,19.37
2019-02-23T09:41:55.057Z,18.15
2019-02-23T09:44:25.495Z,16.70
2019-02-23T09:46:56.386Z,14.00
2019-02-23T09:49:28.836Z,13.73
2019-02-23T09:51:59.396Z,15.10
2019-02-23T09:54:30.761Z,15.20
2019-02-23T09:57:06.673Z,16.03
2019-02-23T09:59:40.028Z,16.00
2019-02-23T10:02:11.115Z,15.47
2019-02-23T10:04:41.973Z,15.30
2019-02-23T10:07:15.052Z,17.60
2019-02-23T10:09:45.530Z,16.40
2019-02-23T10:12:15.959Z,16.30
2019-02-23T10:14:47.489Z,36.63
2019-02-23T10:17:18.323Z,38.00
2019-02-23T10:19:48.776Z,17.77
2019-02-23T10:22:19.650Z,16.57
2019-02-23T10:24:52.109Z,16.13
2019-02-23T10:27:22.426Z,16.80
2019-02-23T10:29:56.053Z,14.80
2019-02-23T10:32:26.716Z,14.63
2019-02-23T10:34:57.269Z,15.60
2019-02-23T10:37:31.982Z,14.90
2019-02-23T10:40:03.740Z,16.00
2019-02-23T10:42:34.226Z,16.37
2019-02-23T10:45:06.347Z,16.40
2019-02-23T10:47:36.828Z,16.10
2019-02-23T10:50:11.255Z,15.50
2019-02-23T10:52:42.390Z,15.47
2019-02-23T10:55:13.778Z,16.13
2019-02-23T10:57:45.273Z,15.00
2019-02-23T11:00:19.577Z,14.10
2019-02-23T11:02:50.715Z,13.87
2019-02-23T11:05:21.974Z,15.13
2019-02-23T11:07:52.299Z,14.80
2019-02-23T11:10:22.860Z,14.93
2019-02-23T11:12:54.457Z,13.13
2019-02-23T11:15:25.103Z,16.57
2019-02-23T11:18:00.083Z,14.67
2019-02-23T11:20:29.104Z,13.33
2019-02-23T11:23:00.488Z,15.53
2019-02-23T11:25:32.052Z,14.40
2019-02-23T11:28:05.708Z,13.47
2019-02-23T11:30:37.504Z,13.33
2019-02-23T11:33:08.537Z,13.63
2019-02-23T11:35:39.393Z,12.80
2019-02-23T11:38:10.857Z,14.90
2019-02-23T11:40:41.950Z,13.10
2019-02-23T11:43:12.319Z,13.40
2019-02-23T11:45:43.135Z,13.93
2019-02-23T11:48:13.859Z,12.63
2019-02-23T11:50:44.365Z,12.20
2019-02-23T11:53:15.209Z,11.43
2019-02-23T11:55:45.607Z,11.37
2019-02-23T11:58:16.022Z,12.67
2019-02-23T12:00:46.698Z,10.90
2019-02-23T12:03:17.047Z,12.00
2019-02-23T12:05:47.516Z,11.40
2019-02-23T12:08:18.128Z,10.80
2019-02-23T12:10:48.489Z,9.33
2019-02-23T12:13:19.023Z,11.17
2019-02-23T12:15:49.423Z,9.20
2019-02-23T12:18:19.713Z,10.87
2019-02-23T12:20:50.093Z,11.40
2019-02-23T12:23:20.850Z,10.90
2019-02-23T12:25:54.163Z,11.77
2019-02-23T12:28:25.567Z,10.57
2019-02-23T12:30:57.254Z,10.70
2019-02-23T12:33:27.595Z,10.50
2019-02-23T12:35:59.009Z,11.37
2019-02-23T12:38:34.296Z,10.87
2019-02-23T12:41:06.168Z,9.87
2019-02-23T12:43:37.284Z,8.93
2019-02-23T12:46:08.811Z,8.83
2019-02-23T12:48:39.274Z,8.10
2019-02-23T12:51:12.983Z,6.63
2019-02-23T12:53:43.342Z,8.23
2019-02-23T12:56:14.503Z,8.00
2019-02-23T12:58:45.532Z,15.47
2019-02-23T13:01:19.043Z,10.43
2019-02-23T13:03:49.488Z,10.47
2019-02-23T13:06:20.934Z,8.80
2019-02-23T13:09:20.200Z,8.70
2019-02-23T13:12:04.563Z,8.97
2019-02-23T13:14:45.938Z,8.60
2019-02-23T13:17:26.041Z,8.60
2019-02-23T13:20:41.975Z,7.97
2019-02-23T13:23:40.372Z,11.03
2019-02-23T13:26:32.987Z,9.00
2019-02-23T13:29:39.361Z,9.37
2019-02-23T13:32:45.315Z,8.10
2019-02-23T13:35:46.358Z,7.70
2019-02-23T13:39:03.701Z,7.80
2019-02-23T13:41:48.151Z,8.40
2019-02-23T13:44:57.995Z,10.40
2019-02-23T13:48:04.009Z,9.90
2019-02-23T13:51:11.932Z,10.23
2019-02-23T13:54:11.596Z,9.00
2019-02-23T13:57:34.896Z,10.03
2019-02-23T14:01:01.829Z,9.10
2019-02-23T14:04:20.367Z,8.40
2019-02-23T14:07:10.958Z,9.43
2019-02-23T14:10:18.589Z,8.17
2019-02-23T14:13:28.484Z,7.63
2019-02-23T14:16:43.738Z,8.73
2019-02-23T14:19:41.676Z,7.80
2019-02-23T14:22:52.472Z,6.90
2019-02-23T14:25:50.599Z,6.23
2019-02-23T14:29:02.455Z,6.40
2019-02-23T14:32:00.536Z,4.80
2019-02-23T14:34:51.797Z,4.90
2019-02-23T14:38:03.537Z,4.90
2019-02-23T14:41:20.564Z,4.60
2019-02-23T14:44:25.007Z,4.50
2019-02-23T14:47:42.324Z,4.90
2019-02-23T14:50:39.675Z,4.60
2019-02-23T14:53:56.448Z,4.40
2019-02-23T14:56:51.981Z,4.57
2019-02-23T14:59:51.360Z,4.70
2019-02-23T15:02:58.039Z,4.63
2019-02-23T15:05:52.524Z,4.30
2019-02-23T15:09:08.697Z,3.70
2019-02-23T15:12:02.537Z,3.23
2019-02-23T15:15:11.608Z,3.27
2019-02-23T15:18:00.063Z,3.40
2019-02-23T15:20:56.674Z,3.30
2019-02-23T15:24:12.101Z,3.50
2019-02-23T15:27:40.263Z,4.00
2019-02-23T15:30:33.247Z,4.03
2019-02-23T15:33:39.131Z,4.17
2019-02-23T15:37:00.731Z,4.13
2019-02-23T15:39:53.500Z,4.10
2019-02-23T15:43:19.200Z,4.10
2019-02-23T15:46:19.698Z,3.97
2019-02-23T15:49:26.420Z,4.33
2019-02-23T15:51:57.330Z,4.07
2019-02-23T15:54:29.297Z,3.30
2019-02-23T15:57:00.405Z,3.87
2019-02-23T15:59:32.030Z,3.57
2019-02-23T16:02:02.949Z,4.20
2019-02-23T16:04:33.382Z,3.90
2019-02-23T16:07:07.291Z,3.07
2019-02-23T16:09:38.710Z,3.77
2019-02-23T16:12:09.263Z,4.03
2019-02-23T16:14:40.393Z,3.97
2019-02-23T16:17:11.284Z,3.60
2019-02-23T16:19:42.328Z,4.27
2019-02-23T16:22:10.469Z,4.87
2019-02-23T16:24:40.891Z,4.73
2019-02-23T16:27:11.247Z,5.57
2019-02-23T16:29:42.002Z,4.90
2019-02-23T16:32:12.935Z,5.40
2019-02-23T16:34:43.803Z,5.30
2019-02-23T16:37:14.838Z,6.97
2019-02-23T16:39:45.452Z,6.40
2019-02-23T16:42:17.088Z,6.67
2019-02-23T16:44:47.803Z,6.17
2019-02-23T16:47:18.257Z,4.93
2019-02-23T16:49:49.566Z,5.03
2019-02-23T16:52:21.016Z,5.17
2019-02-23T16:54:52.736Z,5.17
2019-02-23T16:57:23.600Z,4.90
2019-02-23T16:59:55.032Z,4.00
2019-02-23T17:02:30.650Z,4.50
2019-02-23T17:05:02.859Z,4.33
2019-02-23T17:07:33.639Z,4.17
2019-02-23T17:10:08.506Z,4.30
2019-02-23T17:12:38.948Z,3.77
2019-02-23T17:15:10.645Z,4.60
2019-02-23T17:17:41.327Z,4.23
2019-02-23T17:20:12.086Z,4.33
2019-02-23T17:22:42.782Z,4.30
2019-02-23T17:25:14.099Z,4.90
2019-02-23T17:27:44.869Z,4.30
2019-02-23T17:30:15.355Z,4.83
2019-02-23T17:32:45.969Z,3.90
2019-02-23T17:35:16.788Z,17.43
2019-02-23T17:37:47.737Z,14.53
2019-02-23T17:40:19.121Z,8.90
2019-02-23T17:42:49.570Z,6.07
2019-02-23T17:45:20.958Z,6.23
2019-02-23T17:47:51.498Z,5.13
2019-02-23T17:50:24.668Z,5.17
2019-02-23T17:52:59.424Z,5.57
2019-02-23T17:55:30.382Z,4.80
2019-02-23T17:58:01.116Z,5.83
2019-02-23T18:00:31.783Z,6.77
2019-02-23T18:03:02.263Z,6.03
2019-02-23T18:05:33.607Z,5.83
2019-02-23T18:08:04.475Z,5.60
2019-02-23T18:10:36.421Z,6.50
2019-02-23T18:13:07.515Z,6.37
2019-02-23T18:15:39.936Z,5.40
2019-02-23T18:18:10.407Z,5.60
2019-02-23T18:20:41.187Z,5.97
2019-02-23T18:23:11.809Z,6.00
2019-02-23T18:25:43.418Z,6.10
2019-02-23T18:28:14.489Z,5.50
2019-02-23T18:30:45.100Z,6.10
2019-02-23T18:33:16.532Z,6.30
2019-02-23T18:35:51.415Z,6.77
2019-02-23T18:38:22.865Z,6.03
2019-02-23T18:40:54.658Z,6.73
2019-02-23T18:43:25.151Z,10.33
2019-02-23T18:45:56.278Z,10.33
2019-02-23T18:48:28.330Z,11.37
2019-02-23T18:50:58.709Z,11.77
2019-02-23T18:53:33.016Z,12.33
2019-02-23T18:56:04.847Z,11.13
2019-02-23T18:58:38.570Z,11.13
2019-02-23T19:01:09.718Z,11.73
2019-02-23T19:03:41.440Z,10.20
2019-02-23T19:06:18.499Z,10.33
2019-02-23T19:08:50.443Z,9.30
2019-02-23T19:11:31.172Z,10.50
2019-02-23T19:14:04.761Z,10.27
2019-02-23T19:16:40.580Z,9.37
2019-02-23T19:19:11.894Z,9.90
2019-02-23T19:21:44.607Z,9.63
2019-02-23T19:24:16.565Z,10.30
2019-02-23T19:26:47.968Z,8.30
2019-02-23T19:29:19.530Z,9.40
2019-02-23T19:31:51.528Z,9.30
2019-02-23T19:34:22.960Z,8.90
2019-02-23T19:36:55.175Z,9.47
2019-02-23T19:39:25.702Z,10.00
2019-02-23T19:41:56.381Z,10.70
2019-02-23T19:44:26.792Z,10.60
2019-02-23T19:47:02.728Z,11.70
2019-02-23T19:49:33.456Z,11.90
2019-02-23T19:52:07.192Z,11.60
2019-02-23T19:54:38.026Z,11.47
2019-02-23T19:57:08.939Z,12.33
2019-02-23T19:59:40.507Z,14.00
2019-02-23T20:02:12.078Z,12.80
2019-02-23T20:04:43.053Z,13.10
2019-02-23T20:07:13.649Z,12.23
2019-02-23T20:09:44.573Z,11.57
2019-02-23T20:12:17.360Z,10.50
2019-02-23T20:14:50.717Z,10.55
2019-02-23T20:17:22.220Z,10.28
2019-02-23T20:19:52.847Z,11.05
2019-02-23T20:22:24.635Z,10.98
2019-02-23T20:24:55.469Z,8.98
2019-02-23T20:27:26.100Z,8.23
2019-02-23T20:29:56.641Z,7.60
2019-02-23T20:32:28.746Z,8.88
2019-02-23T20:34:59.204Z,7.87
2019-02-23T20:37:29.892Z,7.75
2019-02-23T20:40:01.337Z,7.65
2019-02-23T20:42:32.779Z,6.67
2019-02-23T20:45:03.588Z,7.33
2019-02-23T20:47:34.465Z,6.65
2019-02-23T20:50:05.907Z,6.90
2019-02-23T20:52:38.975Z,6.08
2019-02-23T20:55:09.767Z,6.40
2019-02-23T20:57:41.138Z,5.65
2019-02-23T21:00:14.864Z,6.22
2019-02-23T21:02:46.448Z,6.20
2019-02-23T21:05:17.289Z,5.22
2019-02-23T21:07:47.777Z,5.42
2019-02-23T21:10:18.589Z,5.85
2019-02-23T21:12:49.257Z,6.37
2019-02-23T21:15:19.677Z,5.10
2019-02-23T21:17:50.556Z,5.50
2019-02-23T21:20:21.354Z,5.00
2019-02-23T21:22:51.753Z,5.62
2019-02-23T21:25:22.499Z,5.60
2019-02-23T21:27:54.571Z,5.03
2019-02-23T21:30:25.522Z,6.08
2019-02-23T21:32:56.026Z,5.90
2019-02-23T21:35:26.740Z,5.85
2019-02-23T21:37:57.265Z,5.70
2019-02-23T21:40:28.048Z,5.58
2019-02-23T21:42:59.140Z,5.50
2019-02-23T21:45:30.112Z,6.28
2019-02-23T21:48:01.773Z,5.10
2019-02-23T21:50:32.548Z,5.40
2019-02-23T21:53:04.028Z,5.35
2019-02-23T21:55:34.460Z,5.35
2019-02-23T21:58:05.542Z,5.42
2019-02-23T22:00:37.110Z,4.70
2019-02-23T22:03:08.176Z,5.78
2019-02-23T22:05:38.877Z,6.15
2019-02-23T22:08:09.566Z,5.65
2019-02-23T22:10:40.158Z,6.20
2019-02-23T22:13:11.326Z,5.90
2019-02-23T22:15:41.809Z,5.75
2019-02-23T22:18:13.025Z,5.90
2019-02-23T22:20:45.372Z,6.03
2019-02-23T22:23:15.980Z,5.35
2019-02-23T22:25:46.786Z,6.20
2019-02-23T22:28:18.291Z,5.15
2019-02-23T22:30:49.868Z,6.58
2019-02-23T22:33:21.225Z,5.40
2019-02-23T22:35:52.010Z,5.75
2019-02-23T22:38:22.609Z,5.85
2019-02-23T22:40:54.989Z,5.95
2019-02-23T22:43:25.728Z,5.40
2019-02-23T22:45:56.944Z,5.25
2019-02-23T22:48:28.018Z,5.00
2019-02-23T22:50:58.815Z,5.53
2019-02-23T22:53:29.543Z,4.80
2019-02-23T22:56:00.839Z,5.25
2019-02-23T22:58:31.502Z,4.65
2019-02-23T23:01:04.197Z,4.67
2019-02-23T23:03:37.076Z,5.05
2019-02-23T23:06:08.149Z,5.30
2019-02-23T23:08:38.575Z,5.30
2019-02-23T23:11:09.808Z,5.00
2019-02-23T23:13:40.557Z,5.05
2019-02-23T23:16:11.676Z,4.78
2019-02-23T23:18:42.447Z,5.00
2019-02-23T23:21:12.975Z,5.37
2019-02-23T23:23:42.227Z,5.62
2019-02-23T23:26:12.735Z,5.22
2019-02-23T23:28:46.558Z,5.40
2019-02-23T23:31:18.522Z,5.40
2019-02-23T23:33:50.077Z,5.30
2019-02-23T23:36:21.438Z,5.58
2019-02-23T23:38:52.839Z,5.45
2019-02-23T23:41:23.888Z,5.10
2019-02-23T23:43:54.519Z,5.65
2019-02-23T23:46:26.614Z,5.40
2019-02-23T23:48:59.141Z,5.12
2019-02-23T23:51:30.532Z,5.40
2019-02-23T23:54:01.292Z,4.75
2019-02-23T23:56:32.804Z,5.47
2019-02-23T23:59:04.037Z,5.50
